Terminal Aerodrome Forecast
Issued by NWS

Home | Current Version | Previous Version | Text Only | Print | Product List | Glossary On
Versions: 1 2 3 4 5 6 7 8 9 10 11 12 13 14 15 16 17 18 19
000
FTUS43 KAPX 301700
TAFAPN
TAF
KAPN 301740Z 3018/3118 19009G16KT P6SM BKN015 OVC040
     FM302000 19008G16KT 3SM TSRA BR SCT020 BKN035CB OVC080
     FM310100 20005KT P6SM VCSH BKN035 BKN070 OVC120
     FM310400 25005KT 3SM BR OVC009
     FM310800 25005KT 2SM BR OVC004
     FM311500 28007KT P6SM OVC012=

USA.gov is the U.S. government's official web portal to all federal, state and local government web resources and services.